D/T METAR WX W/DIR W/SPE G/SPE TEMP DEWP
19/03/19 02:50 EGVO 190250Z 22007KT CAVOK 06/05 Q1024 BLU SW (220°) 8.1mph 6°C 5°C
19/03/19 01:50 EGVO 190150Z AUTO 22006KT 9999 OVC090/// 06/06 Q1024 SW (220°) 6.9mph 6°C 6°C
19/03/19 00:50 EGVO 190050Z AUTO 23006KT 9999 FEW042/// OVC090/// 07/06 Q1024 SW (230°) 6.9mph 7°C 6°C
18/03/19 23:50 EGVO 182350Z 23005KT 9999 BKN042 07/06 Q1024 BLU SW (230°) 5.8mph 7°C 6°C
18/03/19 22:50 EGVO 182250Z 23006KT 9999 BKN044 SCT090 07/06 Q1024 BLU NOSIG SW (230°) 6.9mph 7°C 6°C
18/03/19 21:50 EGVO 182150Z 23005KT 9999 OVC040 07/06 Q1024 BLU NOSIG SW (230°) 5.8mph 7°C 6°C
18/03/19 20:50 EGVO 182050Z 19004KT 9999 BKN045 07/05 Q1023 BLU NOSIG S (190°) 4.6mph 7°C 5°C
18/03/19 19:50 EGVO 181950Z 25003KT 9999 BKN038 SCT045 07/05 Q1023 BLU NOSIG WSW (250°) 3.5mph 7°C 5°C
18/03/19 18:50 EGVO 181850Z 26006KT 9999 FEW026 07/05 Q1022 BLU NOSIG W (260°) 6.9mph 7°C 5°C
18/03/19 17:50 EGVO 181750Z 25005KT 9999 FEW024 SCT035 08/05 Q1022 BLU TEMPO SCT024 WHT WSW (250°) 5.8mph 8°C 5°C
18/03/19 16:50 EGVO 181650Z 26010KT 9999 SCT026 BKN100 09/04 Q1021 BLU TEMPO SCT022 WHT W (260°) 11.5mph 9°C 4°C
18/03/19 15:50 EGVO 181550Z 27011KT 9999 SCT025 BKN100 09/04 Q1021 BLU TEMPO SCT022 WHT W (270°) 12.7mph 9°C 4°C
18/03/19 14:50 EGVO 181450Z 26012KT 9999 -SHRA FEW022 SCT025 BKN080 09/04 Q1021 BLU TEMPO 7000 SHRA SCT022 WHT -SHRA W (260°) 13.8mph 9°C 4°C
18/03/19 13:50 EGVO 181350Z 28010KT 9999 SCT035 BKN080 10/02 Q1021 BLU NOSIG W (280°) 11.5mph 10°C 2°C
18/03/19 12:50 EGVO 181250Z 29010KT 9999 SCT038 SCT050 BKN070 10/01 Q1021 BLU NOSIG WNW (290°) 11.5mph 10°C 1°C
18/03/19 11:50 EGVO 181150Z 29010KT 9999 SCT035 SCT080 10/03 Q1021 BLU NOSIG WNW (290°) 11.5mph 10°C 3°C
18/03/19 10:50 EGVO 181050Z 27013KT 9999 SCT030 BKN090 10/03 Q1021 BLU NOSIG W (270°) 15.0mph 10°C 3°C
18/03/19 09:50 EGVO 180950Z 29012KT 9999 FEW020 SCT080 BKN100 09/03 Q1020 BLU NOSIG WNW (290°) 13.8mph 9°C 3°C
18/03/19 08:50 EGVO 180850Z 27009KT CAVOK 07/04 Q1020 BLU NOSIG W (270°) 10.4mph 7°C 4°C
18/03/19 07:50 EGVO 180750Z 25006KT CAVOK 05/02 Q1020 BLU NOSIG WSW (250°) 6.9mph 5°C 2°C
18/03/19 06:50 EGVO 180650Z 23007KT CAVOK 04/02 Q1019 BLU NOSIG SW (230°) 8.1mph 4°C 2°C
18/03/19 05:50 EGVO 180550Z 23008KT CAVOK 03/02 Q1019 BLU SW (230°) 9.2mph 3°C 2°C
18/03/19 04:50 EGVO 180450Z 25007KT CAVOK 04/02 Q1018 BLU WSW (250°) 8.1mph 4°C 2°C
18/03/19 03:50 EGVO 180350Z 27008KT CAVOK 04/02 Q1017 BLU W (270°) 9.2mph 4°C 2°C
18/03/19 02:50 EGVO 180250Z 25006KT 9999 FEW030 04/02 Q1017 BLU WSW (250°) 6.9mph 4°C 2°C
18/03/19 01:50 EGVO 180150Z 26007KT 9999 FEW030 05/02 Q1017 BLU W (260°) 8.1mph 5°C 2°C
18/03/19 00:50 EGVO 180050Z 27009KT CAVOK 05/02 Q1016 BLU W (270°) 10.4mph 5°C 2°C
17/03/19 23:50 EGVO 172350Z 28008KT CAVOK 05/02 Q1015 BLU W (280°) 9.2mph 5°C 2°C
17/03/19 22:50 EGVO 172250Z 28011KT 9999 FEW049 06/02 Q1014 BLU W (280°) 12.7mph 6°C 2°C
17/03/19 21:50 EGVO 172150Z 27009KT 9999 FEW040 05/02 Q1014 BLU W (270°) 10.4mph 5°C 2°C
17/03/19 20:50 EGVO 172050Z 27009KT 9999 FEW035 05/03 Q1012 BLU W (270°) 10.4mph 5°C 3°C
17/03/19 19:50 EGVO 171950Z 27011KT 9999 BKN049 06/03 Q1011 BLU W (270°) 12.7mph 6°C 3°C
17/03/19 18:50 EGVO 171850Z AUTO 26015KT 9999 FEW025/// BKN032/// 06/03 Q1010 RERA W (260°) 17.3mph 6°C 3°C
17/03/19 17:50 EGVO 171750Z AUTO 27018KT 9999 -RA FEW025/// SCT090/// 06/02 Q1010 -RA W (270°) 20.7mph 6°C 2°C
17/03/19 16:50 EGVO 171650Z AUTO 26020KT 9999 FEW043/// 08/01 Q1008 W (260°) 23.0mph 8°C 1°C
17/03/19 15:50 EGVO 171550Z AUTO 26020KT 9999 SCT041/// 08/M00 Q1008 W (260°) 23.0mph 8°C 0°C
17/03/19 14:50 EGVO 171450Z AUTO 26019KT 9999 BKN050/// 09/M01 Q1007 W (260°) 21.9mph 9°C -1°C
17/03/19 13:50 EGVO 171350Z AUTO 27014G24KT 9999 BKN046/// 09/M01 Q1007 W (270°) 16.1mph 27.6mph 9°C -1°C
17/03/19 12:50 EGVO 171250Z AUTO 25019G29KT 9999 FEW042/// BKN050/// 09/M01 Q1006 WSW (250°) 21.9mph 33.4mph 9°C -1°C
17/03/19 11:50 EGVO 171150Z AUTO 27016KT 9999 SCT040/// BKN048/// 08/M01 Q1006 W (270°) 18.4mph 8°C -1°C
17/03/19 10:50 EGVO 171050Z AUTO 27016KT 9999 SCT044/// 07/M01 Q1006 W (270°) 18.4mph 7°C -1°C
17/03/19 09:50 EGVO 170950Z AUTO 26015KT 9999 FEW021/// 06/02 Q1005 W (260°) 17.3mph 6°C 2°C
17/03/19 08:50 EGVO 170850Z AUTO 25012KT 9999 NCD 05/02 Q1004 WSW (250°) 13.8mph 5°C 2°C
17/03/19 07:50 EGVO 170750Z AUTO 25011KT 9999 NCD 04/02 Q1003 WSW (250°) 12.7mph 4°C 2°C
17/03/19 06:50 EGVO 170650Z AUTO 25013KT 9999 NCD 03/02 Q1002 WSW (250°) 15.0mph 3°C 2°C
17/03/19 05:50 EGVO 170550Z AUTO 24010KT 9999 NCD 04/02 Q1001 WSW (240°) 11.5mph 4°C 2°C
17/03/19 04:50 EGVO 170450Z AUTO 26010KT 9999 NCD 04/02 Q1000 W (260°) 11.5mph 4°C 2°C
17/03/19 03:50 EGVO 170350Z AUTO 25012KT 9999 FEW017/// 05/02 Q0999 WSW (250°) 13.8mph 5°C 2°C
17/03/19 02:50 EGVO 170250Z AUTO 25015KT 9999 NCD 05/02 Q0998 WSW (250°) 17.3mph 5°C 2°C
17/03/19 01:50 EGVO 170150Z AUTO 25015KT 9999 NCD 05/03 Q0998 WSW (250°) 17.3mph 5°C 3°C
17/03/19 00:50 EGVO 170050Z AUTO 25015KT 9999 BKN014/// 06/04 Q0998 WSW (250°) 17.3mph 6°C 4°C
16/03/19 23:50 EGVO 162350Z AUTO 25012KT 9999 FEW014/// SCT027/// BKN090/// 07/05 Q0997 WSW (250°) 13.8mph 7°C 5°C
16/03/19 22:50 EGVO 162250Z AUTO 25017KT 9999 BKN050/// 07/05 Q0996 RERA WSW (250°) 19.6mph 7°C 5°C
16/03/19 21:50 EGVO 162150Z AUTO 23016KT 9999 -RA FEW012/// BKN047/// 08/06 Q0996 -RA SW (230°) 18.4mph 8°C 6°C
16/03/19 20:50 EGVO 162050Z 22024G35KT 4000 RA BKN007 BKN018 09/07 Q0996 GRN BECMG 9000 -RA GRN RA SW (220°) 27.6mph 40.3mph 9°C 7°C
16/03/19 20:30 EGVO 162030Z 21026G37KT 5000 -RA BKN008 BKN018 09/08 Q0995 GRN TEMPO 4000 RA GRN -RA SSW (210°) 29.9mph 42.6mph 9°C 8°C
16/03/19 19:50 EGVO 161950Z 21027G37KT 4000 -RADZ BKN007 BKN015 09/08 Q0995 GRN NOSIG -RA -DZ SSW (210°) 31.1mph 42.6mph 9°C 8°C
16/03/19 18:50 EGVO 161850Z 21026G37KT 4000 -RADZ BKN008 BKN016 09/08 Q0996 GRN TEMPO 5000 RA GRN -RA -DZ SSW (210°) 29.9mph 42.6mph 9°C 8°C
16/03/19 17:50 EGVO 161750Z 21026G37KT 5000 -RADZ BKN008 09/08 Q0997 GRN BECMG 4000 RADZ GRN -RA -DZ SSW (210°) 29.9mph 42.6mph 9°C 8°C
16/03/19 16:50 EGVO 161650Z AUTO 22029G43KT 9999 OVC015/// 10/07 Q0997 SW (220°) 33.4mph 49.5mph 10°C 7°C
16/03/19 15:50 EGVO 161550Z 21025KT 9999 OVC021 10/06 Q0999 WHT SSW (210°) 28.8mph 10°C 6°C
16/03/19 14:50 EGVO 161450Z 22024G40KT 9999 BKN020 BKN026 10/07 Q1000 WHT SW (220°) 27.6mph 46.0mph 10°C 7°C
16/03/19 13:50 EGVO 161350Z 22025G37KT 9999 SCT018 BKN028 10/07 Q1001 WHT SW (220°) 28.8mph 42.6mph 10°C 7°C
16/03/19 12:50 EGVO 161250Z 21022G32KT 9999 -DZ SCT014 BKN020 10/08 Q1002 GRN -DZ SSW (210°) 25.3mph 36.8mph 10°C 8°C
16/03/19 11:50 EGVO 161150Z 22024G35KT 8000 -RADZ SCT014 BKN020 10/07 Q1003 GRN -RA -DZ SW (220°) 27.6mph 40.3mph 10°C 7°C
16/03/19 10:50 EGVO 161050Z 22022G34KT 9999 FEW012 OVC020 10/07 Q1004 WHT SW (220°) 25.3mph 39.1mph 10°C 7°C
16/03/19 09:50 EGVO 160950Z 22024G37KT 9000 -DZ OVC020 10/06 Q1004 WHT -DZ SW (220°) 27.6mph 42.6mph 10°C 6°C
16/03/19 08:50 EGVO 160850Z 23022G37KT 9999 BKN020 10/06 Q1005 WHT SW (230°) 25.3mph 42.6mph 10°C 6°C
16/03/19 07:50 EGVO 160750Z 22021KT 9999 OVC020 10/07 Q1005 WHT SW (220°) 24.2mph 10°C 7°C
16/03/19 06:50 EGVO 160650Z AUTO 22019G29KT 6000 HZ BKN012/// 10/08 Q1006 HZ SW (220°) 21.9mph 33.4mph 10°C 8°C
16/03/19 05:50 EGVO 160550Z AUTO 22020G30KT 9999 OVC011/// 10/08 Q1006 SW (220°) 23.0mph 34.5mph 10°C 8°C
16/03/19 04:50 EGVO 160450Z AUTO 22020KT 9999 OVC012/// 10/08 Q1007 SW (220°) 23.0mph 10°C 8°C
16/03/19 03:50 EGVO 160350Z AUTO 22021KT 9999 BKN012/// 10/08 Q1007 REDZ SW (220°) 24.2mph 10°C 8°C
16/03/19 02:50 EGVO 160250Z AUTO 22020KT 7000 -DZ BKN010/// BKN018/// 10/08 Q1008 -DZ SW (220°) 23.0mph 10°C 8°C
16/03/19 01:50 EGVO 160150Z AUTO 22015KT 9999 BKN011/// SCT018/// BKN021/// 10/08 Q1009 SW (220°) 17.3mph 10°C 8°C
16/03/19 00:50 EGVO 160050Z AUTO 22016KT 9999 BKN008/// 11/09 Q1009 RERA SW (220°) 18.4mph 11°C 9°C
15/03/19 23:50 EGVO 152350Z AUTO 22016KT 9999 BKN007/// BKN014/// 10/10 Q1010 SW (220°) 18.4mph 10°C 10°C
15/03/19 22:50 EGVO 152250Z AUTO 23013KT 3800 BR BKN005/// BKN011/// 10/10 Q1010 BR SW (230°) 15.0mph 10°C 10°C
15/03/19 21:50 EGVO 152150Z AUTO 24012KT 4200 BR BKN006/// BKN013/// 10/09 Q1011 BR WSW (240°) 13.8mph 10°C 9°C
15/03/19 20:50 EGVO 152050Z AUTO 26011KT 9999 BKN005/// 10/09 Q1011 RERA W (260°) 12.7mph 10°C 9°C
15/03/19 19:50 EGVO 151950Z AUTO 26013KT 6000 BR OVC007/// 10/09 Q1011 BR W (260°) 15.0mph 10°C 9°C
15/03/19 18:50 EGVO 151850Z AUTO 25016KT 6000 BR BKN007/// SCT013/// 10/09 Q1010 RERA BR WSW (250°) 18.4mph 10°C 9°C
15/03/19 17:50 EGVO 151750Z AUTO 26018KT 9999 BKN009/// BKN016/// 10/09 Q1010 W (260°) 20.7mph 10°C 9°C
15/03/19 16:50 EGVO 151650Z AUTO 26020G32KT 9999 BKN013/// SCT020/// BKN023/// 11/09 Q1009 W (260°) 23.0mph 36.8mph 11°C 9°C
15/03/19 15:50 EGVO 151550Z 26020G31KT 9999 BKN018 BKN025 12/09 Q1008 WHT NOSIG W (260°) 23.0mph 35.7mph 12°C 9°C
15/03/19 14:50 EGVO 151450Z 26024G36KT 9999 -RADZ OVC016 13/10 Q1008 WHT TEMPO BKN014 GRN -RA -DZ W (260°) 27.6mph 41.4mph 13°C 10°C
15/03/19 13:50 EGVO 151350Z 26027G41KT 9999 7000S -DZ BKN012 OVC025 13/10 Q1008 GRN TEMPO 5000 -DZ GRN -DZ W (260°) 31.1mph 47.2mph 13°C 10°C
15/03/19 12:50 EGVO 151250Z 25021KT 9000 -RADZ SCT010 OVC016 12/11 Q1008 GRN TEMPO 6000 RADZ GRN -RA -DZ WSW (250°) 24.2mph 12°C 11°C
15/03/19 11:50 EGVO 151150Z 25024KT 9999 -DZ BKN010 OVC014 12/11 Q1007 GRN TEMPO 5000 RADZ GRN -DZ WSW (250°) 27.6mph 12°C 11°C
15/03/19 11:28 EGVO 151128Z 25025KT 6000 -RADZ SCT010 OVC014 12/10 Q1007 GRN NOSIG -RA -DZ WSW (250°) 28.8mph 12°C 10°C
15/03/19 11:10 EGVO 151110Z 25025KT 8000 -RADZ BKN012 BKN020 12/10 Q1007 GRN TEMPO FEW012 BKN020 WHT -RA -DZ WSW (250°) 28.8mph 12°C 10°C
15/03/19 10:35 EGVO 151035Z 25026G38KT 9999 OVC016 13/10 Q1007 WHT TEMPO SCT014 GRN WSW (250°) 29.9mph 43.7mph 13°C 10°C
15/03/19 09:50 EGVO 150950Z 26025G37KT 9999 BKN014 BKN022 12/10 Q1007 GRN TEMPO FEW014 BKN022 WHT W (260°) 28.8mph 42.6mph 12°C 10°C
15/03/19 08:50 EGVO 150850Z 25026G37KT 9999 -RADZ OVC013 12/09 Q1007 GRN TEMPO BKN015 WHT -RA -DZ WSW (250°) 29.9mph 42.6mph 12°C 9°C
15/03/19 07:50 EGVO 150750Z 26025KT 9999 -RADZ BKN013 BKN021 12/09 Q1006 GRN TEMPO FEW013 BKN021 WHT -RA -DZ W (260°) 28.8mph 12°C 9°C
15/03/19 06:51 EGVO 150651Z 25024KT 9999 -RADZ BKN012 OVC020 11/09 Q1006 GRN -RA -DZ WSW (250°) 27.6mph 11°C 9°C
15/03/19 05:50 EGVO 150550Z 25025G37KT 9999 -DZ BKN011 OVC016 11/09 Q1006 GRN -DZ WSW (250°) 28.8mph 42.6mph 11°C 9°C
15/03/19 04:50 EGVO 150450Z 26026G38KT 9999 -RA OVC012 11/09 Q1006 GRN -RA W (260°) 29.9mph 43.7mph 11°C 9°C
15/03/19 03:50 EGVO 150350Z 26021G35KT 9999 -RA OVC010 11/10 Q1006 GRN -RA W (260°) 24.2mph 40.3mph 11°C 10°C
15/03/19 02:50 EGVO 150250Z AUTO 24021KT 5000 -RA BKN008/// BKN017/// 11/10 Q1006 -RA WSW (240°) 24.2mph 11°C 10°C
15/03/19 01:50 EGVO 150150Z AUTO 24022KT 6000 BR FEW009/// BKN016/// BKN022/// 11/10 Q1006 BR WSW (240°) 25.3mph 11°C 10°C
15/03/19 00:50 EGVO 150050Z AUTO 23018KT 5000 BR BKN006/// BKN014/// 10/10 Q1007 REDZ BR SW (230°) 20.7mph 10°C 10°C
14/03/19 23:50 EGVO 142350Z 22012KT 4000 -RADZ BKN005 OVC014 10/09 Q1007 YLO1 -RA -DZ SW (220°) 13.8mph 10°C 9°C
14/03/19 23:10 EGVO 142310Z 23010KT 8000 5000SW -RADZ SCT005 BKN008 09/08 Q1008 YLO1 TEMPO 8000 FEW006 BKN010 GRN -RA DZ SW (230°) 11.5mph 9°C 8°C
14/03/19 22:24 EGVO 142224Z 24014KT 9999 SCT023 BKN044 10/07 Q1008 WHT TEMPO SCT012 BKN020 GRN WSW (240°) 16.1mph 10°C 7°C
14/03/19 21:50 EGVO 142150Z 24013KT CAVOK 10/07 Q1008 BLU BECMG SCT020 WHT WSW (240°) 15.0mph 10°C 7°C
14/03/19 20:50 EGVO 142050Z 24013KT 9999 FEW045 BKN100 10/06 Q1009 BLU NOSIG WSW (240°) 15.0mph 10°C 6°C
14/03/19 19:50 EGVO 141950Z 25015KT 9999 FEW045 BKN180 09/06 Q1009 BLU NOSIG WSW (250°) 17.3mph 9°C 6°C
14/03/19 18:50 EGVO 141850Z 26011KT 9999 BKN045 BKN250 10/07 Q1008 BLU NOSIG W (260°) 12.7mph 10°C 7°C
14/03/19 17:50 EGVO 141750Z 28012KT 9999 FEW045 SCT160 BKN250 11/03 Q1008 BLU NOSIG W (280°) 13.8mph 11°C 3°C
14/03/19 16:50 EGVO 141650Z 28017KT 9999 FEW040 SCT160 BKN250 11/02 Q1007 BLU NOSIG W (280°) 19.6mph 11°C 2°C
14/03/19 15:50 EGVO 141550Z 29016KT 9999 FEW046 BKN200 12/03 Q1006 BLU NOSIG WNW (290°) 18.4mph 12°C 3°C
14/03/19 14:50 EGVO 141450Z 29024KT 9999 SCT038 SCT200 13/04 Q1005 BLU NOSIG WNW (290°) 27.6mph 13°C 4°C
14/03/19 13:50 EGVO 141350Z 28017KT 9999 FEW030 SCT250 13/06 Q1004 BLU NOSIG W (280°) 19.6mph 13°C 6°C
14/03/19 12:50 EGVO 141250Z 29021G32KT 9999 -SHRA SCT025 BKN030 11/07 Q1004 BLU NOSIG -SHRA WNW (290°) 24.2mph 36.8mph 11°C 7°C
14/03/19 11:50 EGVO 141150Z 27028G40KT 9999 SCT021 BKN200 13/08 Q1002 WHT TEMPO 5000 SHRA WHT W (270°) 32.2mph 46.0mph 13°C 8°C
14/03/19 10:50 EGVO 141050Z 26025G36KT 9999 -RA BKN018 12/08 Q1002 WHT TEMPO 5000 SHRA SCT012 GRN -RA W (260°) 28.8mph 41.4mph 12°C 8°C
14/03/19 10:32 EGVO 141032Z 26028G42KT 9999 BKN018 12/08 Q1002 WHT TEMPO 5000 SHRA SCT012 GRN W (260°) 32.2mph 48.3mph 12°C 8°C
14/03/19 09:50 EGVO 140950Z 26028G41KT 9999 SCT013 BKN022 11/09 Q1002 GRN TEMPO 5000 SHRA GRN W (260°) 32.2mph 47.2mph 11°C 9°C
14/03/19 08:50 EGVO 140850Z 25022G32KT 9999 -RA BKN011 BKN020 10/08 Q1003 GRN TEMPO FEW011 BKN020 WHT -RA WSW (250°) 25.3mph 36.8mph 10°C 8°C
14/03/19 07:50 EGVO 140750Z 24023G33KT 9999 -RA SCT012 BKN020 09/08 Q1003 GRN TEMPO FEW012 BKN020 WHT -RA WSW (240°) 26.5mph 38.0mph 9°C 8°C
14/03/19 06:50 EGVO 140650Z 23022G32KT 9999 -RA BKN013 08/07 Q1004 GRN -RA SW (230°) 25.3mph 36.8mph 8°C 7°C
14/03/19 05:50 EGVO 140550Z 24022KT 9999 -RA OVC015 08/06 Q1005 WHT -RA WSW (240°) 25.3mph 8°C 6°C
14/03/19 04:50 EGVO 140450Z 23020KT 9999 -RA FEW012 OVC018 08/06 Q1006 WHT -RA SW (230°) 23.0mph 8°C 6°C
14/03/19 03:50 EGVO 140350Z AUTO 23017KT 9999 -RA FEW016/// BKN020/// 07/06 Q1008 -RA SW (230°) 19.6mph 7°C 6°C
14/03/19 02:50 EGVO 140250Z AUTO 23014KT 9999 -RA BKN023/// BKN033/// 07/05 Q1010 -RA SW (230°) 16.1mph 7°C 5°C
14/03/19 01:50 EGVO 140150Z 23016KT 9999 -RA BKN024 07/04 Q1011 WHT TEMPO 7000 RA WHT -RA SW (230°) 18.4mph 7°C 4°C
14/03/19 00:50 EGVO 140050Z 24016KT 9999 -RA BKN022 07/04 Q1012 WHT NOSIG -RA WSW (240°) 18.4mph 7°C 4°C
14/03/19 00:38 EGVO 140038Z 24013KT 9999 BKN020 BKN100 07/05 Q1012 WHT TEMPO FEW020 BLU WSW (240°) 15.0mph 7°C 5°C
13/03/19 23:50 EGVO 132350Z 25018KT 9999 FEW019 SCT100 07/04 Q1013 BLU TEMPO SCT020 WHT WSW (250°) 20.7mph 7°C 4°C
13/03/19 23:12 EGVO 132312Z 25015KT 9999 SCT020 BKN090 08/04 Q1013 WHT NOSIG WSW (250°) 17.3mph 8°C 4°C
13/03/19 21:50 EGVO 132150Z 26018KT CAVOK 07/04 Q1013 BLU NOSIG W (260°) 20.7mph 7°C 4°C
13/03/19 20:50 EGVO 132050Z 24015KT 9999 BKN045 SCT120 BKN190 07/04 Q1014 BLU NOSIG WSW (240°) 17.3mph 7°C 4°C
13/03/19 19:50 EGVO 131950Z 25014KT CAVOK 08/03 Q1014 BLU NOSIG WSW (250°) 16.1mph 8°C 3°C
13/03/19 18:50 EGVO 131850Z 26011KT CAVOK 08/01 Q1014 BLU NOSIG W (260°) 12.7mph 8°C 1°C
13/03/19 17:50 EGVO 131750Z 28013KT 9999 FEW045 SCT130 09/00 Q1013 BLU NOSIG W (280°) 15.0mph 9°C 0°C
13/03/19 16:50 EGVO 131650Z 28016KT 9999 BKN044 09/00 Q1013 BLU NOSIG W (280°) 18.4mph 9°C 0°C
13/03/19 15:50 EGVO 131550Z 28019G29KT 9999 BKN042 BKN052 10/01 Q1012 BLU NOSIG W (280°) 21.9mph 33.4mph 10°C 1°C
13/03/19 14:50 EGVO 131450Z 29017KT 9999 BKN035 09/02 Q1011 BLU NOSIG WNW (290°) 19.6mph 9°C 2°C
13/03/19 13:50 EGVO 131350Z 27019KT 9999 BKN035 10/02 Q1010 BLU NOSIG W (270°) 21.9mph 10°C 2°C
13/03/19 12:50 EGVO 131250Z 27019G36KT 9999 -SHRA BKN025 09/03 Q1010 BLU NOSIG -SHRA W (270°) 21.9mph 41.4mph 9°C 3°C
13/03/19 11:50 EGVO 131150Z 27021G31KT 9999 SCT030 09/03 Q1009 BLU NOSIG W (270°) 24.2mph 35.7mph 9°C 3°C
13/03/19 10:50 EGVO 131050Z 26020KT 9999 BKN027 BKN040 09/03 Q1009 BLU NOSIG W (260°) 23.0mph 9°C 3°C
13/03/19 09:50 EGVO 130950Z 27025KT 9999 BKN026 08/03 Q1008 BLU TEMPO 7000 -SHRA W (270°) 28.8mph 8°C 3°C